createdAt,value
2022-12-13T00:00:27.934Z,22.92
2022-12-13T00:03:13.825Z,24.85
2022-12-13T00:05:59.878Z,22.23
2022-12-13T00:08:45.797Z,23.55
2022-12-13T00:11:32.076Z,23.92
2022-12-13T00:14:18.990Z,23.95
2022-12-13T00:17:05.435Z,23.08
2022-12-13T00:19:51.545Z,23.75
2022-12-13T00:22:37.867Z,26.65
2022-12-13T00:25:24.179Z,23.88
2022-12-13T00:28:10.381Z,24.17
2022-12-13T00:31:19.817Z,25.00
2022-12-13T00:34:06.189Z,23.40
2022-12-13T00:36:54.719Z,26.55
2022-12-13T00:39:41.492Z,24.95
2022-12-13T00:42:27.699Z,23.67
2022-12-13T00:45:13.970Z,24.13
2022-12-13T00:48:00.710Z,24.92
2022-12-13T00:50:46.855Z,23.67
2022-12-13T00:53:32.906Z,23.35
2022-12-13T00:56:23.640Z,24.17
2022-12-13T00:59:13.854Z,23.95
2022-12-13T01:01:59.945Z,23.40
2022-12-13T01:04:45.954Z,24.35
2022-12-13T01:07:31.854Z,24.02
2022-12-13T01:10:17.657Z,21.52
2022-12-13T01:13:03.815Z,24.60
2022-12-13T01:15:49.619Z,23.50
2022-12-13T01:18:36.246Z,21.83
2022-12-13T01:21:22.539Z,21.38
2022-12-13T01:24:10.964Z,20.77
2022-12-13T01:26:57.801Z,16.92
2022-12-13T01:29:44.347Z,17.77
2022-12-13T01:32:30.251Z,17.45
2022-12-13T01:35:16.880Z,20.75
2022-12-13T01:38:03.247Z,20.75
2022-12-13T01:41:02.807Z,20.40
2022-12-13T01:44:06.257Z,19.60
2022-12-13T01:46:52.112Z,19.33
2022-12-13T01:49:38.368Z,21.00
2022-12-13T01:52:25.859Z,19.92
2022-12-13T01:55:13.068Z,20.05
2022-12-13T01:58:02.486Z,19.17
2022-12-13T02:00:48.874Z,19.80
2022-12-13T02:03:35.202Z,18.88
2022-12-13T02:06:33.420Z,18.95
2022-12-13T02:09:20.749Z,20.45
2022-12-13T02:12:07.481Z,19.83
2022-12-13T02:14:53.973Z,21.48
2022-12-13T02:18:04.301Z,19.80
2022-12-13T02:21:18.004Z,20.20
2022-12-13T02:24:24.193Z,19.73
2022-12-13T02:27:30.182Z,19.08
2022-12-13T02:30:30.590Z,18.67
2022-12-13T02:33:22.910Z,18.20
2022-12-13T02:36:11.868Z,19.08
2022-12-13T02:39:14.708Z,18.13
2022-12-13T02:42:08.136Z,18.27
2022-12-13T02:45:20.091Z,17.90
2022-12-13T02:48:08.482Z,17.42
2022-12-13T02:50:56.281Z,17.80
2022-12-13T02:53:43.326Z,17.85
2022-12-13T02:56:31.841Z,17.80
2022-12-13T02:59:17.925Z,16.65
2022-12-13T03:02:21.621Z,17.27
2022-12-13T03:05:47.688Z,18.17
2022-12-13T03:09:07.798Z,17.88
2022-12-13T03:12:33.569Z,17.67
2022-12-13T03:15:41.560Z,16.63
2022-12-13T03:18:28.484Z,17.90
2022-12-13T03:21:14.864Z,18.17
2022-12-13T03:24:01.612Z,18.98
2022-12-13T03:26:48.958Z,17.45
2022-12-13T03:29:34.953Z,18.77
2022-12-13T03:32:20.758Z,18.95
2022-12-13T03:35:21.919Z,17.20
2022-12-13T03:38:09.280Z,17.52
2022-12-13T03:40:58.379Z,19.08
2022-12-13T03:43:44.968Z,17.48
2022-12-13T03:46:31.211Z,17.92
2022-12-13T03:49:17.751Z,18.63
2022-12-13T03:52:03.639Z,17.73
2022-12-13T03:54:49.779Z,17.13
2022-12-13T03:57:35.796Z,18.92
2022-12-13T04:00:21.833Z,17.10
2022-12-13T04:03:08.292Z,17.65
2022-12-13T04:05:54.335Z,18.70
2022-12-13T04:08:40.730Z,19.77
2022-12-13T04:11:44.911Z,18.25
2022-12-13T04:14:31.044Z,20.25
2022-12-13T04:17:17.026Z,19.15
2022-12-13T04:20:03.083Z,17.38
2022-12-13T04:22:48.898Z,18.27
2022-12-13T04:25:34.833Z,18.02
2022-12-13T04:28:22.322Z,17.38
2022-12-13T04:31:08.926Z,18.35
2022-12-13T04:33:54.918Z,18.85
2022-12-13T04:36:41.881Z,17.17
2022-12-13T04:39:27.661Z,17.40
2022-12-13T04:42:20.509Z,18.33
2022-12-13T04:45:06.994Z,18.27
2022-12-13T04:47:53.001Z,19.55
2022-12-13T04:50:38.783Z,19.10
2022-12-13T04:53:24.777Z,17.95
2022-12-13T04:56:10.614Z,18.20
2022-12-13T04:58:56.569Z,16.58
2022-12-13T05:01:42.420Z,19.25
2022-12-13T05:04:32.647Z,18.38
2022-12-13T05:07:18.911Z,18.45
2022-12-13T05:10:05.823Z,19.52
2022-12-13T05:12:51.707Z,17.73
2022-12-13T05:15:37.609Z,17.38
2022-12-13T05:18:23.802Z,18.23
2022-12-13T05:21:11.543Z,17.35
2022-12-13T05:23:57.734Z,17.00
2022-12-13T05:26:43.674Z,17.98
2022-12-13T05:29:29.545Z,20.33
2022-12-13T05:32:15.738Z,19.80
2022-12-13T05:35:01.712Z,18.88
2022-12-13T05:37:47.811Z,18.58
2022-12-13T05:40:40.936Z,20.10
2022-12-13T05:43:42.810Z,20.23
2022-12-13T05:46:29.592Z,18.08
2022-12-13T05:49:15.585Z,18.15
2022-12-13T05:52:01.379Z,18.42
2022-12-13T05:54:47.583Z,18.90
2022-12-13T05:57:34.029Z,19.02
2022-12-13T06:00:30.068Z,19.48
2022-12-13T06:03:17.278Z,19.08
2022-12-13T06:06:04.564Z,17.48
2022-12-13T06:08:50.617Z,18.77
2022-12-13T06:11:36.653Z,17.77
2022-12-13T06:14:29.890Z,18.55
2022-12-13T06:17:16.011Z,18.92
2022-12-13T06:20:24.368Z,17.88
2022-12-13T06:23:10.968Z,17.67
2022-12-13T06:25:57.049Z,18.27
2022-12-13T06:28:47.315Z,18.00
2022-12-13T06:31:33.320Z,17.45
2022-12-13T06:34:19.085Z,17.73
2022-12-13T06:37:07.242Z,17.20
2022-12-13T06:39:53.364Z,16.33
2022-12-13T06:42:39.229Z,16.42
2022-12-13T06:45:25.785Z,17.17
2022-12-13T06:48:15.177Z,16.98
2022-12-13T06:51:05.728Z,14.45
2022-12-13T06:53:51.814Z,14.65
2022-12-13T06:56:37.667Z,14.30
2022-12-13T06:59:23.686Z,14.55
2022-12-13T07:02:24.192Z,14.75
2022-12-13T07:05:11.773Z,14.10
2022-12-13T07:07:57.727Z,13.70
2022-12-13T07:10:43.591Z,15.25
2022-12-13T07:13:31.170Z,14.50
2022-12-13T07:16:17.190Z,15.73
2022-12-13T07:19:04.347Z,16.15
2022-12-13T07:22:09.383Z,15.35
2022-12-13T07:24:55.452Z,14.43
2022-12-13T07:27:41.232Z,14.90
2022-12-13T07:30:27.498Z,14.85
2022-12-13T07:33:14.117Z,17.15
2022-12-13T07:36:12.784Z,16.63
2022-12-13T07:38:58.760Z,16.50
2022-12-13T07:41:44.855Z,16.42
2022-12-13T07:44:30.787Z,15.82
2022-12-13T07:47:16.652Z,15.90
2022-12-13T07:50:02.681Z,16.90
2022-12-13T07:52:50.014Z,17.10
2022-12-13T07:55:36.888Z,17.10
2022-12-13T07:58:23.201Z,21.58
2022-12-13T08:01:10.276Z,22.15
2022-12-13T08:03:56.471Z,19.77
2022-12-13T08:06:42.192Z,18.30
2022-12-13T08:09:28.930Z,17.27
2022-12-13T08:12:15.012Z,16.90
2022-12-13T08:15:13.819Z,15.93
2022-12-13T08:18:01.366Z,14.85
2022-12-13T08:20:47.396Z,15.80
2022-12-13T08:23:34.453Z,16.90
2022-12-13T08:26:20.717Z,16.73
2022-12-13T08:29:06.492Z,16.45
2022-12-13T08:31:52.405Z,17.35
2022-12-13T08:34:39.110Z,16.10
2022-12-13T08:37:25.872Z,16.00
2022-12-13T08:40:12.201Z,16.83
2022-12-13T08:42:59.165Z,15.63
2022-12-13T08:45:45.403Z,14.23
2022-12-13T08:48:32.056Z,14.73
2022-12-13T08:51:24.441Z,14.55
2022-12-13T08:54:12.664Z,17.17
2022-12-13T08:56:58.600Z,14.00
2022-12-13T08:59:44.726Z,15.15
2022-12-13T09:02:30.549Z,15.18
2022-12-13T09:05:32.930Z,17.98
2022-12-13T09:08:23.891Z,16.15
2022-12-13T09:11:20.625Z,16.73
2022-12-13T09:14:14.132Z,19.15
2022-12-13T09:17:02.572Z,17.23
2022-12-13T09:19:49.357Z,16.83
2022-12-13T09:22:35.944Z,15.15
2022-12-13T09:25:24.081Z,14.45
2022-12-13T09:28:10.395Z,16.00
2022-12-13T09:30:57.047Z,15.90
2022-12-13T09:33:44.218Z,17.70
2022-12-13T09:36:30.142Z,19.63
2022-12-13T09:39:16.412Z,19.42
2022-12-13T09:42:10.351Z,15.07
2022-12-13T09:45:05.574Z,14.15
2022-12-13T09:47:53.131Z,16.48
2022-12-13T09:50:58.296Z,14.60
2022-12-13T09:53:47.075Z,17.40
2022-12-13T09:56:33.364Z,16.38
2022-12-13T09:59:30.976Z,15.88
2022-12-13T10:02:46.132Z,15.43
2022-12-13T10:05:40.040Z,16.35
2022-12-13T10:08:36.576Z,16.00
2022-12-13T10:11:23.334Z,15.95
2022-12-13T10:14:26.352Z,12.07
2022-12-13T10:17:16.007Z,12.00
2022-12-13T10:20:03.863Z,11.25
2022-12-13T10:23:14.978Z,12.60
2022-12-13T10:26:03.378Z,12.80
2022-12-13T10:28:51.430Z,12.63
2022-12-13T10:31:46.277Z,13.00
2022-12-13T10:34:35.995Z,14.52
2022-12-13T10:37:48.424Z,12.57
2022-12-13T10:40:48.848Z,13.60
2022-12-13T10:43:36.141Z,13.02
2022-12-13T10:46:25.044Z,11.60
2022-12-13T10:49:37.947Z,11.90
2022-12-13T10:52:43.459Z,9.32
2022-12-13T10:55:34.308Z,12.20
2022-12-13T10:58:20.980Z,11.68
2022-12-13T11:01:16.265Z,10.55
2022-12-13T11:04:25.405Z,9.90
2022-12-13T11:07:31.307Z,10.35
2022-12-13T11:10:26.855Z,11.18
2022-12-13T11:13:25.274Z,9.52
2022-12-13T11:16:17.566Z,9.93
2022-12-13T11:19:06.179Z,10.43
2022-12-13T11:21:53.005Z,11.73
2022-12-13T11:24:40.999Z,13.10
2022-12-13T11:27:49.295Z,14.82
2022-12-13T11:30:50.694Z,12.63
2022-12-13T11:33:57.466Z,13.07
2022-12-13T11:37:11.696Z,10.57
2022-12-13T11:40:36.278Z,13.98
2022-12-13T11:43:25.095Z,12.98
2022-12-13T11:46:20.146Z,12.20
2022-12-13T11:49:18.180Z,9.73
2022-12-13T11:52:25.994Z,9.60
2022-12-13T11:55:18.490Z,12.23
2022-12-13T11:58:08.889Z,12.23
2022-12-13T12:00:59.924Z,12.73
2022-12-13T12:03:59.190Z,14.93
2022-12-13T12:06:54.847Z,18.65
2022-12-13T12:09:46.120Z,16.63
2022-12-13T12:12:34.732Z,16.30
2022-12-13T12:15:26.766Z,20.35
2022-12-13T12:18:16.700Z,15.60
2022-12-13T12:21:14.272Z,18.75
2022-12-13T12:24:06.340Z,17.42
2022-12-13T12:27:11.267Z,16.88
2022-12-13T12:30:09.031Z,19.35
2022-12-13T12:32:55.009Z,19.52
2022-12-13T12:35:50.020Z,18.00
2022-12-13T12:38:54.866Z,16.52
2022-12-13T12:42:15.080Z,16.52
2022-12-13T12:49:07.965Z,18.13
2022-12-13T12:52:04.978Z,18.58
2022-12-13T12:55:18.920Z,17.92
2022-12-13T12:58:13.300Z,17.23
2022-12-13T13:01:36.096Z,16.30
2022-12-13T13:04:35.831Z,19.15
2022-12-13T13:07:40.019Z,19.15
2022-12-13T13:10:27.381Z,18.35
2022-12-13T13:13:33.735Z,18.42
2022-12-13T13:16:39.253Z,18.48
2022-12-13T13:19:31.465Z,18.63
2022-12-13T13:22:33.849Z,18.88
2022-12-13T13:25:40.112Z,15.70
2022-12-13T13:28:40.131Z,15.63
2022-12-13T13:31:26.029Z,16.42
2022-12-13T13:34:25.739Z,14.60
2022-12-13T13:37:24.373Z,15.02
2022-12-13T13:40:13.538Z,15.75
2022-12-13T13:43:17.426Z,15.80
2022-12-13T13:46:03.409Z,20.30
2022-12-13T13:49:07.123Z,17.95
2022-12-13T13:55:30.280Z,22.30
2022-12-13T13:58:21.475Z,23.30
2022-12-13T14:01:38.330Z,24.58
2022-12-13T14:04:45.689Z,20.38
2022-12-13T14:07:53.523Z,22.58
2022-12-13T14:10:52.853Z,22.58
2022-12-13T14:13:56.301Z,19.73
2022-12-13T14:17:03.659Z,19.33
2022-12-13T14:20:15.113Z,21.23
2022-12-13T14:23:22.430Z,22.58
2022-12-13T14:26:25.427Z,21.77
2022-12-13T14:32:02.100Z,22.00
2022-12-13T14:34:49.775Z,22.65
2022-12-13T14:37:37.874Z,20.05
2022-12-13T14:40:36.796Z,18.70
2022-12-13T14:43:24.565Z,20.95
2022-12-13T14:46:14.783Z,20.40
2022-12-13T14:49:01.676Z,22.67
2022-12-13T14:52:00.261Z,21.08
2022-12-13T14:54:51.569Z,18.10
2022-12-13T14:57:52.091Z,19.10
2022-12-13T15:00:40.805Z,18.70
2022-12-13T15:03:28.263Z,18.33
2022-12-13T15:06:14.647Z,17.95
2022-12-13T15:09:01.835Z,22.33
2022-12-13T15:11:47.807Z,25.50
2022-12-13T15:14:34.723Z,21.90
2022-12-13T15:17:37.045Z,22.23
2022-12-13T15:20:39.174Z,26.75
2022-12-13T15:23:29.848Z,28.38
2022-12-13T15:26:28.500Z,28.35
2022-12-13T15:29:18.949Z,30.67
2022-12-13T15:32:05.848Z,28.80
2022-12-13T15:34:52.020Z,36.05
2022-12-13T15:37:37.968Z,31.13
2022-12-13T15:40:23.905Z,32.80
2022-12-13T15:43:17.259Z,31.33
2022-12-13T15:46:04.554Z,30.02
2022-12-13T15:48:50.560Z,33.30
2022-12-13T15:51:54.265Z,32.90
2022-12-13T15:54:40.065Z,33.20
2022-12-13T15:57:31.344Z,29.98
2022-12-13T16:00:17.350Z,32.22
2022-12-13T16:03:09.707Z,32.47
2022-12-13T16:08:45.908Z,34.63
2022-12-13T16:12:05.172Z,32.05
2022-12-13T16:14:51.641Z,32.47
2022-12-13T16:17:42.114Z,35.72
2022-12-13T16:20:30.520Z,32.53
2022-12-13T16:23:26.657Z,37.80
2022-12-13T16:26:14.216Z,33.08
2022-12-13T16:29:00.424Z,32.88
2022-12-13T16:31:46.616Z,35.75
2022-12-13T16:34:32.726Z,35.38
2022-12-13T16:37:26.002Z,37.55
2022-12-13T16:40:17.651Z,34.28
2022-12-13T16:43:06.314Z,39.13
2022-12-13T16:45:53.659Z,36.22
2022-12-13T16:48:39.394Z,35.53
2022-12-13T16:51:25.131Z,36.33
2022-12-13T16:54:11.392Z,39.08
2022-12-13T16:56:57.521Z,39.85
2022-12-13T16:59:43.489Z,40.95
2022-12-13T17:02:29.564Z,43.33
2022-12-13T17:05:15.673Z,41.22
2022-12-13T17:08:01.995Z,45.47
2022-12-13T17:10:48.193Z,42.75
2022-12-13T17:13:44.971Z,41.00
2022-12-13T17:16:31.853Z,38.42
2022-12-13T17:19:18.117Z,35.50
2022-12-13T17:22:04.183Z,38.25
2022-12-13T17:24:49.953Z,38.72
2022-12-13T17:27:36.398Z,36.88
2022-12-13T17:30:24.228Z,39.17
2022-12-13T17:33:12.249Z,36.22
2022-12-13T17:36:01.648Z,36.33
2022-12-13T17:38:48.308Z,34.55
2022-12-13T17:41:34.284Z,33.78
2022-12-13T17:44:20.808Z,35.03
2022-12-13T17:47:07.191Z,35.05
2022-12-13T17:49:53.500Z,33.05
2022-12-13T17:52:39.944Z,32.65
2022-12-13T17:55:25.819Z,31.73
2022-12-13T17:58:14.286Z,31.35
2022-12-13T18:01:13.776Z,30.10
2022-12-13T18:04:00.124Z,31.25
2022-12-13T18:06:46.452Z,32.53
2022-12-13T18:09:32.535Z,32.88
2022-12-13T18:12:19.473Z,32.03
2022-12-13T18:15:06.294Z,33.80
2022-12-13T18:21:06.733Z,32.75
2022-12-13T18:23:55.069Z,36.55
2022-12-13T18:26:42.096Z,31.60
2022-12-13T18:29:28.346Z,31.60
2022-12-13T18:32:14.264Z,32.50
2022-12-13T18:35:00.156Z,31.20
2022-12-13T18:37:46.193Z,30.73
2022-12-13T18:40:32.369Z,28.85
2022-12-13T18:43:18.643Z,28.13
2022-12-13T18:46:05.346Z,29.98
2022-12-13T18:48:51.694Z,28.80
2022-12-13T18:51:38.087Z,29.00
2022-12-13T18:54:24.301Z,28.85
2022-12-13T18:57:10.281Z,26.58
2022-12-13T18:59:56.182Z,30.67
2022-12-13T19:02:42.108Z,31.27
2022-12-13T19:05:28.178Z,30.45
2022-12-13T19:08:14.229Z,31.85
2022-12-13T19:11:01.783Z,30.70
2022-12-13T19:13:48.545Z,29.85
2022-12-13T19:16:34.500Z,51.47
2022-12-13T19:19:20.511Z,44.67
2022-12-13T19:22:06.830Z,34.90
2022-12-13T19:24:52.716Z,35.38
2022-12-13T19:27:39.258Z,32.45
2022-12-13T19:30:26.086Z,30.23
2022-12-13T19:33:13.147Z,30.50
2022-12-13T19:35:58.895Z,35.20
2022-12-13T19:38:45.146Z,35.40
2022-12-13T19:41:32.405Z,33.70
2022-12-13T19:44:18.728Z,28.83
2022-12-13T19:47:05.056Z,30.23
2022-12-13T19:49:51.270Z,31.30
2022-12-13T19:52:38.473Z,32.58
2022-12-13T19:55:24.588Z,30.63
2022-12-13T19:58:11.027Z,29.75
2022-12-13T20:01:04.479Z,28.08
2022-12-13T20:03:50.566Z,28.42
2022-12-13T20:06:36.563Z,29.65
2022-12-13T20:09:22.276Z,28.98
2022-12-13T20:12:08.604Z,32.75
2022-12-13T20:14:54.562Z,33.85
2022-12-13T20:17:40.351Z,36.28
2022-12-13T20:20:40.857Z,36.22
2022-12-13T20:23:34.829Z,39.33
2022-12-13T20:26:23.375Z,42.80
2022-12-13T20:29:09.531Z,39.38
2022-12-13T20:31:56.696Z,41.78
2022-12-13T20:34:42.919Z,40.70
2022-12-13T20:37:28.965Z,42.40
2022-12-13T20:40:15.146Z,44.80
2022-12-13T20:43:01.777Z,43.70
2022-12-13T20:45:47.607Z,34.63
2022-12-13T20:48:38.767Z,32.58
2022-12-13T20:51:26.828Z,31.30
2022-12-13T20:54:12.722Z,31.92
2022-12-13T20:56:58.579Z,28.15
2022-12-13T20:59:44.620Z,25.85
2022-12-13T21:02:30.922Z,24.52
2022-12-13T21:05:20.685Z,27.38
2022-12-13T21:08:25.263Z,30.13
2022-12-13T21:11:26.784Z,27.35
2022-12-13T21:14:25.510Z,31.65
2022-12-13T21:17:12.104Z,29.67
2022-12-13T21:19:57.979Z,28.00
2022-12-13T21:22:43.944Z,27.05
2022-12-13T21:25:29.904Z,27.10
2022-12-13T21:28:15.644Z,26.50
2022-12-13T21:31:03.637Z,28.08
2022-12-13T21:33:55.015Z,31.10
2022-12-13T21:36:43.773Z,32.75
2022-12-13T21:39:29.791Z,31.90
2022-12-13T21:42:16.011Z,32.22
2022-12-13T21:45:02.445Z,34.25
2022-12-13T21:47:49.030Z,34.33
2022-12-13T21:50:35.152Z,34.35
2022-12-13T21:53:21.434Z,32.28
2022-12-13T21:56:31.349Z,34.60
2022-12-13T21:59:22.634Z,33.47
2022-12-13T22:02:16.361Z,33.65
2022-12-13T22:05:02.486Z,35.92
2022-12-13T22:07:48.499Z,36.15
2022-12-13T22:10:34.626Z,36.33
2022-12-13T22:13:20.560Z,36.10
2022-12-13T22:16:07.080Z,34.92
2022-12-13T22:18:56.908Z,33.58
2022-12-13T22:21:43.309Z,35.65
2022-12-13T22:24:29.497Z,36.97
2022-12-13T22:27:19.588Z,37.97
2022-12-13T22:30:06.512Z,38.97
2022-12-13T22:32:52.972Z,39.45
2022-12-13T22:35:39.144Z,41.55
2022-12-13T22:38:25.444Z,44.42
2022-12-13T22:41:14.429Z,47.90
2022-12-13T22:44:00.458Z,49.60
2022-12-13T22:46:46.838Z,49.72
2022-12-13T22:49:32.769Z,50.97
2022-12-13T22:52:18.524Z,49.97
2022-12-13T22:55:05.147Z,48.78
2022-12-13T22:57:50.907Z,47.15
2022-12-13T23:00:37.096Z,44.47
2022-12-13T23:03:23.913Z,45.03
2022-12-13T23:06:13.998Z,45.50
2022-12-13T23:09:02.272Z,50.78
2022-12-13T23:12:06.560Z,57.15
2022-12-13T23:14:52.900Z,56.88
2022-12-13T23:17:38.634Z,54.92
2022-12-13T23:20:24.576Z,47.42
2022-12-13T23:23:10.442Z,47.38
2022-12-13T23:25:56.322Z,45.15
2022-12-13T23:28:43.501Z,43.47
2022-12-13T23:31:31.191Z,39.95
2022-12-13T23:34:17.277Z,40.45
2022-12-13T23:37:03.436Z,41.50
2022-12-13T23:39:49.323Z,47.33
2022-12-13T23:42:35.109Z,45.75
2022-12-13T23:45:21.068Z,49.90
2022-12-13T23:48:07.180Z,51.80
2022-12-13T23:50:53.322Z,48.35
2022-12-13T23:53:39.852Z,47.97
2022-12-13T23:56:26.470Z,46.95
2022-12-13T23:59:12.553Z,46.13
